KASG

Details ICAO KASG
Name SPRINGDALE MUNI
Region United States
Timezone America/Chicago (UTC-5.0)
Plans Departing 17
Arriving 5
Stats Elevation 1,353 ft / 412 m (AMSL)
Location 36.176400° -94.119248°
Runways 1
Magnetic Variation 1.426° E
Sunrise 2018-05-24 11:05:39 UTC / 2018-05-24 06:05:39 Local
Sunset 2018-05-25 01:23:54 UTC / 2018-05-24 20:23:54 Local
Advertisement - Login to hide

Runways

ID Width Length Bearing (true) Bearing (mag) Surface Threshold Offset Overrun Length
18 75 ft / 23 m 5,313 ft / 1,620 m 187.06° 185.63° Asphalt 363 ft / 111 m 0 ft / 0 m
36 75 ft / 23 m 5,313 ft / 1,620 m 7.06° 5.63° Asphalt 0 ft / 0 m 0 ft / 0 m

Approach Navaids

Runway Type Ident Frequency Range Bearing (true) Bearing (mag) Slope Elevation
18 Localiser IASG 110.90 MHz 18 nm / 33 km 187.06° 185.63° - 1,334 ft / 407 m (AMSL)
18 Glidescope IASG 110.90 MHz 10 nm / 19 km 187.06° 185.63° 3.00° 1,336 ft / 407 m (AMSL)

Map

Weather


0- 5 10 15 20 25 30 35+ Temperature / ° C

Clouds and Precipitation
Forecast for 2018-05-25 00:00 UTC. Updated 2 hours ago

Ground ~20,000 ft ~40,000 ft Winds

METAR

KASG 250048Z 13003KT 10SM SCT150 23/19 A3007

TAF

Not found

Frequencies

Recorded 124.67 MHz AWOS 3
Unicom 122.95 MHz UNICOM
Tower 118.20 MHz TWR
Unicom 118.20 MHz CTAF
Ground 121.60 MHz GND
Approach 128.15 MHz RAZORBACK APP/DEP
Warning: Do not use this data for real-world aviation or navigation. No guarantee of current accuracy is given.